Time;durP1;ratioP1;P1;durP2;ratioP2;P2;SDS_P1;SDS_P2;PMS_P1;PMS_P2;Temp;Humidity;BMP_temperature;BMP_pressure;BME280_temperature;BME280_humidity;BME280_pressure;Samples;Min_cycle;Max_cycle;Signal;HPM_P1;HPM_P2
2024/03/05 00:00:17;;;;;;;16.33;12.90;;;9.60;1.00;;;;;;5100608;28;20164;-85
2024/03/05 00:02:43;;;;;;;14.70;12.03;;;9.60;1.00;;;;;;5086788;28;20221;-84
2024/03/05 00:05:14;;;;;;;20.37;13.43;;;9.60;1.00;;;;;;5101710;28;20179;-84
2024/03/05 00:07:41;;;;;;;18.67;12.80;;;9.30;1.00;;;;;;5098718;28;20616;-89
2024/03/05 00:10:09;;;;;;;14.20;12.30;;;9.40;1.00;;;;;;5099738;28;20207;-84
2024/03/05 00:12:34;;;;;;;16.07;12.93;;;9.30;1.00;;;;;;5099526;28;20147;-83
2024/03/05 00:15:00;;;;;;;16.60;12.30;;;9.30;1.00;;;;;;5098484;28;20566;-86
2024/03/05 00:17:27;;;;;;;16.17;13.20;;;9.20;1.00;;;;;;5096011;28;20174;-84
2024/03/05 00:19:53;;;;;;;18.47;12.70;;;9.30;1.00;;;;;;5099853;28;20174;-86
2024/03/05 00:22:20;;;;;;;17.20;13.83;;;9.40;1.00;;;;;;5097749;28;20359;-88
2024/03/05 00:24:47;;;;;;;17.63;12.50;;;9.20;1.00;;;;;;5095863;28;20174;-85
2024/03/05 00:27:13;;;;;;;20.27;13.00;;;9.30;1.00;;;;;;5080734;28;20186;-91
2024/03/05 00:29:43;;;;;;;17.00;13.37;;;9.20;1.00;;;;;;5097440;28;20659;-96
2024/03/05 00:32:09;;;;;;;16.33;12.50;;;9.20;1.00;;;;;;5096968;28;20175;-84
2024/03/05 00:34:35;;;;;;;17.07;12.80;;;9.10;1.00;;;;;;5097070;28;20633;-83
2024/03/05 00:37:00;;;;;;;13.97;11.87;;;9.20;1.00;;;;;;5100934;28;20175;-82
2024/03/05 00:39:26;;;;;;;16.07;12.20;;;9.20;1.00;;;;;;5099735;28;20255;-84
2024/03/05 00:41:52;;;;;;;17.43;12.97;;;9.10;1.00;;;;;;5099804;28;20611;-83
2024/03/05 00:44:17;;;;;;;17.63;13.47;;;9.10;1.00;;;;;;5097047;28;20164;-84
2024/03/05 00:46:44;;;;;;;15.83;12.33;;;9.10;1.00;;;;;;5096617;28;20172;-83
2024/03/05 00:49:11;;;;;;;16.27;12.67;;;9.00;1.00;;;;;;5097745;28;20281;-85
2024/03/05 00:51:36;;;;;;;18.57;13.47;;;9.00;1.00;;;;;;5097272;28;20164;-87
2024/03/05 00:54:05;;;;;;;17.90;13.40;;;9.00;1.00;;;;;;5096326;28;20550;-84
2024/03/05 00:56:33;;;;;;;16.37;13.40;;;9.10;1.00;;;;;;5101858;28;20168;-84
2024/03/05 00:58:58;;;;;;;18.63;13.43;;;9.00;1.00;;;;;;5101616;28;20164;-92
2024/03/05 01:01:24;;;;;;;17.67;12.83;;;9.00;1.00;;;;;;5106913;28;20622;-83
2024/03/05 01:03:49;;;;;;;18.40;13.87;;;8.90;1.00;;;;;;5113902;28;20175;-83
2024/03/05 01:06:16;;;;;;;19.07;13.70;;;8.90;1.00;;;;;;5111161;28;20221;-84
2024/03/05 01:08:45;;;;;;;17.37;13.03;;;8.80;1.00;;;;;;5104197;28;20204;-90
2024/03/05 01:11:10;;;;;;;18.57;13.57;;;8.90;1.00;;;;;;5101625;28;20217;-83
2024/03/05 01:13:37;;;;;;;16.90;13.83;;;8.90;1.00;;;;;;5101203;28;20585;-84
2024/03/05 01:16:06;;;;;;;17.43;14.33;;;8.90;1.00;;;;;;5101891;28;20615;-87
2024/03/05 01:18:33;;;;;;;18.80;13.20;;;8.80;1.00;;;;;;5101230;28;20246;-88
2024/03/05 01:20:58;;;;;;;17.00;13.73;;;9.00;1.00;;;;;;5101694;28;20194;-82
2024/03/05 01:23:24;;;;;;;17.30;13.37;;;8.70;1.00;;;;;;5100078;28;20163;-85
2024/03/05 01:25:50;;;;;;;19.03;13.13;;;8.70;1.00;;;;;;5103734;28;20183;-85
2024/03/05 01:28:17;;;;;;;15.90;13.10;;;8.90;1.00;;;;;;5104964;28;20191;-84
2024/03/05 01:30:44;;;;;;;17.07;12.90;;;8.90;1.00;;;;;;5101761;28;20180;-86
2024/03/05 01:33:19;;;;;;;18.40;12.93;;;9.00;1.00;;;;;;5101992;28;20200;-96
2024/03/05 01:35:51;;;;;;;20.07;13.30;;;9.00;1.00;;;;;;5104367;28;20712;-82
2024/03/05 01:38:17;;;;;;;16.97;12.63;;;8.90;1.00;;;;;;5107591;28;20171;-83
2024/03/05 01:40:45;;;;;;;15.83;13.00;;;8.80;1.00;;;;;;5104879;28;20196;-83
2024/03/05 01:43:11;;;;;;;17.23;13.73;;;9.00;1.00;;;;;;5103124;28;20646;-89
2024/03/05 01:45:38;;;;;;;18.10;13.83;;;8.80;1.00;;;;;;5101529;28;20183;-86
2024/03/05 01:48:05;;;;;;;20.73;13.40;;;8.90;1.00;;;;;;5099591;28;20183;-85
2024/03/05 01:50:37;;;;;;;19.13;13.70;;;9.00;1.00;;;;;;5099795;28;20186;-85
2024/03/05 01:53:06;;;;;;;19.17;13.80;;;9.00;1.00;;;;;;5097848;28;20525;-86
2024/03/05 01:55:32;;;;;;;21.03;13.93;;;9.20;1.00;;;;;;5099162;28;20658;-87
2024/03/05 01:57:58;;;;;;;17.53;12.57;;;9.10;1.00;;;;;;5101749;28;20589;-83
2024/03/05 02:00:26;;;;;;;18.63;13.60;;;9.00;1.00;;;;;;5104015;28;20183;-84
2024/03/05 02:02:52;;;;;;;17.13;13.57;;;9.10;1.00;;;;;;5101871;28;20194;-83
2024/03/05 02:05:18;;;;;;;16.33;13.70;;;8.90;1.00;;;;;;5101300;28;20212;-84
2024/03/05 02:07:46;;;;;;;19.10;13.53;;;8.90;1.00;;;;;;5098163;28;20167;-86
2024/03/05 02:10:14;;;;;;;20.07;13.93;;;8.90;1.00;;;;;;5099438;28;20211;-84
2024/03/05 02:12:42;;;;;;;15.37;12.87;;;8.80;1.00;;;;;;5098287;28;20183;-84
2024/03/05 02:15:13;;;;;;;19.47;13.70;;;8.80;1.00;;;;;;5101486;28;20222;-84
2024/03/05 02:17:45;;;;;;;16.90;12.77;;;8.90;1.00;;;;;;5101269;28;20266;-85
2024/03/05 02:20:14;;;;;;;15.57;12.57;;;9.00;1.00;;;;;;5100715;28;20171;-84
2024/03/05 02:22:41;;;;;;;18.83;12.93;;;9.00;1.00;;;;;;5105831;28;20818;-83
2024/03/05 02:25:08;;;;;;;17.07;13.13;;;9.00;1.00;;;;;;5103700;28;20210;-89
2024/03/05 02:27:36;;;;;;;18.53;12.60;;;8.90;1.00;;;;;;5098092;28;20171;-94
2024/03/05 02:30:09;;;;;;;18.83;13.37;;;9.10;1.00;;;;;;5099826;28;20202;-84
2024/03/05 02:32:40;;;;;;;18.07;12.57;;;9.00;1.00;;;;;;5099093;28;20168;-89
2024/03/05 02:35:07;;;;;;;16.90;12.83;;;8.90;1.00;;;;;;5098478;28;20170;-85
2024/03/05 02:37:43;;;;;;;16.27;12.37;;;8.90;1.00;;;;;;5098873;28;20235;-84
2024/03/05 02:40:13;;;;;;;14.43;11.43;;;9.10;1.00;;;;;;5099016;28;20237;-84
2024/03/05 02:42:42;;;;;;;15.70;11.47;;;9.00;1.00;;;;;;5098348;28;20636;-83
2024/03/05 02:45:11;;;;;;;16.87;12.17;;;9.00;1.00;;;;;;5099171;28;20268;-89
2024/03/05 02:47:42;;;;;;;15.67;11.77;;;9.20;1.00;;;;;;5100700;28;20175;-83
2024/03/05 02:50:09;;;;;;;15.07;11.60;;;9.20;1.00;;;;;;5101421;28;20219;-83
2024/03/05 02:52:38;;;;;;;14.37;11.00;;;9.20;1.00;;;;;;5099059;28;20675;-84
2024/03/05 02:55:09;;;;;;;13.33;11.20;;;9.20;1.00;;;;;;5100402;28;20187;-85
2024/03/05 02:57:43;;;;;;;17.07;11.73;;;9.20;1.00;;;;;;5111591;28;20645;-83
2024/03/05 03:00:18;;;;;;;17.10;11.20;;;9.20;1.00;;;;;;5106536;28;20181;-86
2024/03/05 03:02:50;;;;;;;13.83;10.77;;;9.20;1.00;;;;;;5102858;28;20179;-84
2024/03/05 03:05:21;;;;;;;15.53;11.23;;;9.10;1.00;;;;;;5100720;28;20166;-91
2024/03/05 03:07:46;;;;;;;13.23;11.23;;;9.20;1.00;;;;;;5100590;28;20247;-84
2024/03/05 03:10:13;;;;;;;11.37;10.13;;;9.20;1.00;;;;;;5097433;28;20239;-92
2024/03/05 03:12:42;;;;;;;14.07;10.70;;;9.10;1.00;;;;;;5099275;28;20167;-93
2024/03/05 03:15:08;;;;;;;12.97;10.43;;;8.90;1.00;;;;;;5099149;28;20183;-84
2024/03/05 03:17:40;;;;;;;12.27;10.43;;;8.90;1.00;;;;;;5098441;28;20217;-83
2024/03/05 03:20:08;;;;;;;13.90;10.13;;;8.90;1.00;;;;;;5098640;28;20951;-90
2024/03/05 03:22:34;;;;;;;12.87;10.53;;;8.90;1.00;;;;;;5080260;28;20270;-88
2024/03/05 03:25:01;;;;;;;14.03;9.70;;;9.10;1.00;;;;;;5097184;28;20652;-86
2024/03/05 03:27:28;;;;;;;12.50;10.27;;;9.20;1.00;;;;;;5097848;28;20199;-91
2024/03/05 03:29:53;;;;;;;12.10;9.60;;;9.10;1.00;;;;;;5098633;28;20216;-84
2024/03/05 03:32:20;;;;;;;12.03;9.17;;;9.30;1.00;;;;;;5097507;28;20201;-96
2024/03/05 03:34:46;;;;;;;10.93;8.57;;;9.20;1.00;;;;;;5097894;28;20627;-91
2024/03/05 03:37:13;;;;;;;11.73;9.63;;;9.20;1.00;;;;;;5100036;28;20179;-88
2024/03/05 03:39:48;;;;;;;11.50;9.40;;;9.40;1.00;;;;;;5098778;28;20191;-95
2024/03/05 03:42:15;;;;;;;13.00;9.67;;;9.30;1.00;;;;;;5096133;28;20163;-84
2024/03/05 03:44:40;;;;;;;18.50;8.27;;;9.20;1.00;;;;;;5097986;28;20256;-89
2024/03/05 03:47:07;;;;;;;11.27;8.23;;;9.50;1.00;;;;;;5096609;28;20543;-84
2024/03/05 03:49:33;;;;;;;11.27;8.03;;;9.40;1.00;;;;;;5097898;28;20210;-85
2024/03/05 03:52:00;;;;;;;13.07;8.03;;;9.30;1.00;;;;;;5098886;28;20194;-83
2024/03/05 03:54:26;;;;;;;13.77;8.20;;;9.10;1.00;;;;;;5099015;28;20258;-85
2024/03/05 03:56:52;;;;;;;11.73;8.23;;;9.00;1.00;;;;;;5099051;28;20175;-84
2024/03/05 03:59:20;;;;;;;12.97;7.70;;;8.90;1.00;;;;;;5099220;28;20171;-83
2024/03/05 04:01:51;;;;;;;13.20;8.10;;;8.80;1.00;;;;;;5100495;28;20195;-83
2024/03/05 04:04:21;;;;;;;10.37;7.63;;;8.70;1.00;;;;;;5097924;28;20167;-84
2024/03/05 04:06:47;;;;;;;11.53;7.80;;;8.80;1.00;;;;;;5099777;28;20179;-84
2024/03/05 04:09:14;;;;;;;12.97;8.60;;;8.70;1.00;;;;;;5098680;28;20260;-85
2024/03/05 04:11:41;;;;;;;11.57;7.83;;;8.70;1.00;;;;;;5098929;28;20175;-86
2024/03/05 04:14:08;;;;;;;11.13;8.17;;;8.80;1.00;;;;;;5099601;28;20734;-84
2024/03/05 04:16:34;;;;;;;13.27;8.13;;;8.70;1.00;;;;;;5099771;28;20176;-83
2024/03/05 04:19:01;;;;;;;11.90;7.80;;;8.70;1.00;;;;;;5100078;28;20278;-85
2024/03/05 04:21:29;;;;;;;11.50;7.93;;;8.60;1.00;;;;;;5099119;28;20527;-88
2024/03/05 04:23:55;;;;;;;11.00;7.70;;;8.60;1.00;;;;;;5102074;28;20266;-82
2024/03/05 04:26:23;;;;;;;12.80;7.90;;;8.50;1.00;;;;;;5099972;28;20199;-85
2024/03/05 04:28:54;;;;;;;12.93;7.50;;;8.50;1.00;;;;;;5095344;28;20748;-84
2024/03/05 04:31:30;;;;;;;11.20;7.70;;;8.50;1.00;;;;;;5098051;28;20178;-84
2024/03/05 04:33:59;;;;;;;13.27;8.33;;;8.70;1.00;;;;;;5098189;28;20171;-90
2024/03/05 04:36:26;;;;;;;10.27;7.03;;;8.70;1.00;;;;;;5098133;28;20216;-84
2024/03/05 04:38:52;;;;;;;12.40;7.60;;;8.60;1.00;;;;;;5100662;28;20192;-90
2024/03/05 04:41:18;;;;;;;11.83;7.90;;;8.70;1.00;;;;;;5098512;28;20197;-89
2024/03/05 04:43:44;;;;;;;11.37;7.50;;;8.70;1.00;;;;;;5096057;28;20279;-83
2024/03/05 04:46:13;;;;;;;12.03;7.40;;;8.80;1.00;;;;;;5098302;28;20183;-83
2024/03/05 04:48:38;;;;;;;10.60;7.63;;;8.80;1.00;;;;;;5103622;28;20263;-82
2024/03/05 04:51:08;;;;;;;11.13;7.07;;;8.90;1.00;;;;;;5106983;28;20538;-83
2024/03/05 04:53:36;;;;;;;11.63;7.57;;;8.80;1.00;;;;;;5104296;28;20172;-82
2024/03/05 04:56:03;;;;;;;10.40;7.13;;;8.70;1.00;;;;;;5099220;28;20167;-85
2024/03/05 04:58:29;;;;;;;13.03;7.30;;;8.60;1.00;;;;;;5096971;28;20190;-83
2024/03/05 05:01:02;;;;;;;10.00;6.57;;;8.70;1.00;;;;;;5095490;28;20171;-92
2024/03/05 05:03:27;;;;;;;9.70;6.67;;;8.50;1.00;;;;;;5095632;28;20532;-84
2024/03/05 05:05:54;;;;;;;12.90;7.07;;;8.40;1.00;;;;;;5096232;28;20266;-84
2024/03/05 05:08:20;;;;;;;9.27;7.03;;;8.40;1.00;;;;;;5095076;28;20686;-90
2024/03/05 05:10:47;;;;;;;11.80;7.17;;;8.60;1.00;;;;;;5096424;28;20175;-83
2024/03/05 05:13:13;;;;;;;8.77;6.47;;;8.50;1.00;;;;;;5095637;28;20164;-87
2024/03/05 05:15:39;;;;;;;8.97;6.37;;;8.60;1.00;;;;;;5094869;28;20449;-86
2024/03/05 05:18:05;;;;;;;9.80;6.93;;;8.50;1.00;;;;;;5096314;28;20213;-93
2024/03/05 05:20:31;;;;;;;10.37;6.50;;;8.50;1.00;;;;;;5097076;28;20180;-83
2024/03/05 05:22:58;;;;;;;11.70;6.70;;;8.50;1.00;;;;;;5100654;28;20255;-84
2024/03/05 05:25:24;;;;;;;8.03;6.00;;;8.50;1.00;;;;;;5098813;28;20178;-90
2024/03/05 05:27:50;;;;;;;10.53;5.70;;;8.50;1.00;;;;;;5098474;28;20262;-87
2024/03/05 05:30:20;;;;;;;8.90;5.63;;;8.50;1.00;;;;;;5098233;28;20210;-84
2024/03/05 05:32:50;;;;;;;7.70;5.70;;;8.40;1.00;;;;;;5096209;28;20167;-89
2024/03/05 05:35:17;;;;;;;7.40;6.10;;;8.60;1.00;;;;;;5095780;28;20179;-85
2024/03/05 05:37:44;;;;;;;11.63;5.77;;;8.70;1.00;;;;;;5079143;28;20172;-84
2024/03/05 05:40:16;;;;;;;7.97;5.73;;;8.70;1.00;;;;;;5099699;28;20195;-81
2024/03/05 05:42:47;;;;;;;10.20;5.63;;;8.70;1.00;;;;;;5102631;28;20172;-84
2024/03/05 05:45:13;;;;;;;8.07;6.00;;;8.70;1.00;;;;;;5101469;28;20176;-85
2024/03/05 05:47:57;;;;;;;11.70;6.13;;;8.80;1.00;;;;;;5104398;28;20199;-83
2024/03/05 05:50:31;;;;;;;11.90;6.07;;;8.80;1.00;;;;;;5102763;28;20268;-86
2024/03/05 05:52:57;;;;;;;8.90;6.10;;;9.00;1.00;;;;;;5097909;28;20510;-85
2024/03/05 05:55:26;;;;;;;9.30;6.07;;;9.20;1.00;;;;;;5097019;28;20178;-87
2024/03/05 05:57:54;;;;;;;8.93;6.33;;;9.20;1.00;;;;;;5095717;28;20263;-85
2024/03/05 06:00:39;;;;;;;7.80;6.20;;;9.20;1.00;;;;;;5097474;28;20184;-95
2024/03/05 06:03:09;;;;;;;7.90;5.73;;;9.10;1.00;;;;;;5096471;28;20253;-83
2024/03/05 06:05:37;;;;;;;8.13;5.80;;;9.20;1.00;;;;;;5097646;28;20187;-84
2024/03/05 06:08:04;;;;;;;10.00;6.10;;;9.20;1.00;;;;;;5095688;28;20172;-84
2024/03/05 06:10:30;;;;;;;8.33;5.70;;;9.20;1.00;;;;;;5097391;28;20172;-89
2024/03/05 06:12:56;;;;;;;10.60;6.17;;;9.10;1.00;;;;;;5097500;28;20174;-88
2024/03/05 06:15:23;;;;;;;8.40;5.83;;;9.20;1.00;;;;;;5098250;28;20198;-89
2024/03/05 06:17:51;;;;;;;9.13;5.27;;;9.20;1.00;;;;;;5097092;28;20182;-83
2024/03/05 06:20:19;;;;;;;10.00;5.43;;;9.20;1.00;;;;;;5099873;28;20285;-85
2024/03/05 06:23:00;;;;;;;7.07;4.80;;;9.10;1.00;;;;;;5101815;28;20172;-83
2024/03/05 06:25:29;;;;;;;7.80;4.70;;;9.40;1.00;;;;;;5099752;28;20179;-84
2024/03/05 06:27:54;;;;;;;6.43;4.80;;;9.00;1.00;;;;;;5096916;28;20184;-87
2024/03/05 06:30:21;;;;;;;7.40;4.60;;;8.90;1.00;;;;;;5100918;28;20546;-83
2024/03/05 06:32:49;;;;;;;6.57;4.80;;;8.80;1.00;;;;;;5101162;28;20164;-85
2024/03/05 06:35:26;;;;;;;6.37;4.50;;;8.90;1.00;;;;;;5096749;28;20171;-89
2024/03/05 06:37:53;;;;;;;10.23;4.90;;;9.10;1.00;;;;;;5099632;28;20212;-83
2024/03/05 06:40:19;;;;;;;6.70;4.33;;;9.20;1.00;;;;;;5095195;28;20335;-85
2024/03/05 06:43:03;;;;;;;7.33;5.20;;;9.20;1.00;;;;;;5099602;28;20172;-83
2024/03/05 06:45:30;;;;;;;7.73;4.80;;;9.20;1.00;;;;;;5111705;28;20172;-82
2024/03/05 06:48:12;;;;;;;6.73;4.67;;;9.30;1.00;;;;;;5106486;28;20228;-84
2024/03/05 06:50:43;;;;;;;10.17;5.10;;;9.40;1.00;;;;;;5098236;28;20173;-83
2024/03/05 06:58:44;;;;;;;6.77;4.90;;;9.40;1.00;;;;;;5084846;28;20317;-89
2024/03/05 07:01:11;;;;;;;8.97;5.57;;;9.60;1.00;;;;;;5090152;28;20168;-91
2024/03/05 07:03:41;;;;;;;7.10;4.90;;;9.60;1.00;;;;;;5093945;28;20187;-82
2024/03/05 07:06:09;;;;;;;7.10;4.57;;;9.60;1.00;;;;;;5093679;28;20171;-89
2024/03/05 07:08:38;;;;;;;6.77;4.67;;;9.60;1.00;;;;;;5093876;28;20219;-86
2024/03/05 07:11:05;;;;;;;8.70;5.00;;;9.60;1.00;;;;;;5093767;28;20507;-85
2024/03/05 07:13:36;;;;;;;7.87;4.70;;;9.60;1.00;;;;;;5094570;28;20537;-93
2024/03/05 07:16:07;;;;;;;6.27;4.20;;;9.60;1.00;;;;;;5095312;28;20178;-85
2024/03/05 07:18:33;;;;;;;6.87;4.57;;;9.60;1.00;;;;;;5091403;28;20550;-83
2024/03/05 07:20:59;;;;;;;5.43;4.13;;;9.60;1.00;;;;;;5091912;28;20317;-81
2024/03/05 07:23:28;;;;;;;6.37;4.17;;;9.60;1.00;;;;;;5087237;28;20167;-83
2024/03/05 07:25:55;;;;;;;5.07;4.00;;;9.40;1.00;;;;;;5081337;28;20546;-83
2024/03/05 07:28:20;;;;;;;6.93;4.00;;;9.30;1.00;;;;;;5079985;28;20175;-82
2024/03/05 07:30:47;;;;;;;7.63;4.27;;;9.50;1.00;;;;;;5080553;28;20179;-83
2024/03/05 07:33:12;;;;;;;7.13;3.67;;;9.20;1.00;;;;;;5079674;28;20182;-83
2024/03/05 07:35:40;;;;;;;6.67;3.73;;;9.40;1.00;;;;;;5082331;28;20240;-82
2024/03/05 07:38:07;;;;;;;5.70;4.10;;;9.20;1.00;;;;;;5083000;28;20164;-82
2024/03/05 07:40:33;;;;;;;5.33;4.00;;;9.30;1.00;;;;;;5080138;28;20188;-82
2024/03/05 07:43:04;;;;;;;5.90;3.80;;;9.30;1.00;;;;;;5082196;28;20195;-83
2024/03/05 07:45:31;;;;;;;6.53;3.47;;;9.30;1.00;;;;;;5082178;28;20187;-83
2024/03/05 07:47:57;;;;;;;7.50;3.80;;;9.10;1.00;;;;;;5082468;28;20211;-83
2024/03/05 07:50:23;;;;;;;7.10;3.83;;;9.10;1.00;;;;;;5084735;28;20207;-81
2024/03/05 07:52:53;;;;;;;5.53;3.50;;;9.00;1.00;;;;;;5091421;28;20183;-86
2024/03/05 07:55:21;;;;;;;4.70;3.10;;;9.00;1.00;;;;;;5091277;28;20183;-83
2024/03/05 07:57:52;;;;;;;5.57;3.40;;;9.00;1.00;;;;;;5089758;28;20262;-83
2024/03/05 08:00:20;;;;;;;5.27;3.90;;;9.00;1.00;;;;;;5081026;28;20317;-89
2024/03/05 08:02:47;;;;;;;6.47;4.00;;;9.00;1.00;;;;;;5071870;28;20220;-84
2024/03/05 08:05:18;;;;;;;7.57;4.40;;;9.10;1.00;;;;;;5072137;28;20180;-82
2024/03/05 08:07:56;;;;;;;6.97;4.50;;;9.20;1.00;;;;;;5072050;28;20267;-84
2024/03/05 08:10:23;;;;;;;6.17;3.40;;;9.30;1.00;;;;;;5071956;28;20257;-87
2024/03/05 08:12:52;;;;;;;6.03;3.77;;;9.20;1.00;;;;;;5071766;28;20195;-83
2024/03/05 08:15:18;;;;;;;4.97;3.27;;;9.10;1.90;;;;;;5071410;28;20204;-84
2024/03/05 08:17:45;;;;;;;7.17;3.40;;;9.20;3.20;;;;;;5070978;28;20176;-84
2024/03/05 08:20:14;;;;;;;5.13;3.23;;;9.20;2.20;;;;;;5071095;28;20176;-83
2024/03/05 08:22:40;;;;;;;7.20;3.27;;;9.20;3.90;;;;;;5071092;28;20172;-83
2024/03/05 08:25:09;;;;;;;6.57;3.77;;;9.10;5.20;;;;;;5070350;28;20710;-82
2024/03/05 08:27:39;;;;;;;4.93;3.20;;;9.20;5.00;;;;;;5069277;28;20212;-88
2024/03/05 08:30:07;;;;;;;7.23;4.07;;;9.20;2.90;;;;;;5068902;28;20291;-83
2024/03/05 08:32:37;;;;;;;7.87;4.00;;;9.30;4.40;;;;;;5069981;28;20168;-84
2024/03/05 08:35:09;;;;;;;8.40;3.80;;;9.50;2.10;;;;;;5069595;28;20172;-83
2024/03/05 08:37:35;;;;;;;7.70;3.90;;;9.50;1.00;;;;;;5070830;28;20200;-84
2024/03/05 08:40:03;;;;;;;6.77;3.93;;;9.40;1.00;;;;;;5072631;28;20645;-83
2024/03/05 08:42:28;;;;;;;7.47;3.70;;;9.40;1.00;;;;;;5080661;28;20187;-85
2024/03/05 08:44:54;;;;;;;6.67;3.80;;;9.60;1.00;;;;;;5081235;28;20176;-84
2024/03/05 08:47:23;;;;;;;5.63;3.77;;;9.70;1.00;;;;;;5073892;28;20175;-83
2024/03/05 08:49:50;;;;;;;5.33;4.27;;;9.70;1.00;;;;;;5070439;28;20249;-84
2024/03/05 08:52:18;;;;;;;7.37;4.43;;;9.90;1.00;;;;;;5070969;28;20616;-88
2024/03/05 08:54:44;;;;;;;9.53;5.10;;;10.00;1.00;;;;;;5071309;28;20263;-84
2024/03/05 08:57:10;;;;;;;6.37;4.27;;;10.10;1.00;;;;;;5072785;28;20187;-83
2024/03/05 08:59:36;;;;;;;9.13;4.23;;;9.80;1.00;;;;;;5071436;28;20176;-85
2024/03/05 09:02:04;;;;;;;6.63;4.00;;;9.80;1.00;;;;;;5072851;28;20629;-83
2024/03/05 09:04:30;;;;;;;5.73;3.83;;;9.70;1.00;;;;;;5071157;28;20180;-83
2024/03/05 09:06:56;;;;;;;6.20;4.00;;;9.80;1.00;;;;;;5071227;28;20653;-83
2024/03/05 09:09:21;;;;;;;6.03;3.73;;;9.80;2.90;;;;;;5071055;28;20243;-90
2024/03/05 09:11:47;;;;;;;6.63;3.50;;;9.70;5.20;;;;;;5070555;28;20199;-87
2024/03/05 09:14:13;;;;;;;6.30;3.30;;;9.60;5.70;;;;;;5072501;28;20176;-84
2024/03/05 09:16:39;;;;;;;4.10;2.93;;;9.60;6.90;;;;;;5075430;28;20293;-83
2024/03/05 09:19:05;;;;;;;5.07;3.13;;;9.60;11.70;;;;;;5074809;28;20616;-85
2024/03/05 09:21:32;;;;;;;5.33;3.53;;;9.60;14.10;;;;;;5073378;28;20263;-83
2024/03/05 09:23:59;;;;;;;5.93;3.00;;;9.60;17.90;;;;;;5074807;28;20180;-92
2024/03/05 09:26:25;;;;;;;4.30;3.10;;;9.70;16.50;;;;;;5074394;28;20569;-85
2024/03/05 09:28:51;;;;;;;7.17;3.30;;;9.60;18.00;;;;;;5074223;28;20667;-83
2024/03/05 09:31:18;;;;;;;5.13;2.80;;;9.50;21.30;;;;;;5074064;28;20211;-91
2024/03/05 09:33:44;;;;;;;6.03;3.03;;;9.60;21.80;;;;;;5074182;28;20180;-83
2024/03/05 09:36:11;;;;;;;5.93;3.30;;;9.40;25.10;;;;;;5075190;28;20749;-92
2024/03/05 09:38:37;;;;;;;4.63;3.03;;;9.50;26.30;;;;;;5077213;28;20617;-86
2024/03/05 09:41:07;;;;;;;6.43;3.27;;;9.50;27.30;;;;;;5080092;28;20222;-88
2024/03/05 09:43:33;;;;;;;6.17;3.63;;;9.40;31.60;;;;;;5076411;28;20176;-84
2024/03/05 09:46:06;;;;;;;5.77;3.60;;;9.50;32.70;;;;;;5074805;28;20180;-82
2024/03/05 09:48:37;;;;;;;6.17;4.20;;;9.50;37.00;;;;;;5075964;28;20242;-84
2024/03/05 09:51:08;;;;;;;6.50;4.40;;;9.60;39.30;;;;;;5074695;28;20269;-84
2024/03/05 09:53:34;;;;;;;7.37;3.90;;;9.70;38.80;;;;;;5074060;28;20218;-88
2024/03/05 09:56:01;;;;;;;5.93;3.27;;;9.80;35.50;;;;;;5074642;28;20173;-83
2024/03/05 09:58:39;;;;;;;6.20;3.30;;;9.70;33.30;;;;;;5075925;28;20225;-82
2024/03/05 10:01:10;;;;;;;4.27;3.27;;;9.70;32.20;;;;;;5076420;28;20251;-82
2024/03/05 10:03:37;;;;;;;5.53;4.13;;;9.70;32.10;;;;;;5074772;28;20606;-83
2024/03/05 10:06:07;;;;;;;7.33;5.20;;;9.80;32.30;;;;;;5077107;28;20304;-84
2024/03/05 10:08:33;;;;;;;4.77;3.77;;;9.60;33.60;;;;;;5095322;28;20188;-84
2024/03/05 10:11:02;;;;;;;5.23;3.73;;;9.70;34.90;;;;;;5094375;28;20173;-85
2024/03/05 10:13:32;;;;;;;5.37;3.90;;;9.60;36.50;;;;;;5095430;28;20512;-85
2024/03/05 10:16:22;;;;;;;5.93;3.40;;;9.50;37.90;;;;;;5094055;28;20255;-83
2024/03/05 10:18:52;;;;;;;5.43;3.40;;;9.60;40.70;;;;;;5094453;28;20168;-83
2024/03/05 10:21:19;;;;;;;5.57;3.67;;;9.70;41.10;;;;;;5094058;28;20173;-83
2024/03/05 10:23:46;;;;;;;4.67;3.47;;;9.70;39.60;;;;;;5093997;28;20503;-84
2024/03/05 10:26:27;;;;;;;5.43;3.37;;;9.70;40.70;;;;;;5093778;28;20221;-83
2024/03/05 10:28:58;;;;;;;5.37;3.90;;;9.80;41.90;;;;;;5095258;28;20409;-83
2024/03/05 10:31:25;;;;;;;6.07;3.53;;;9.80;40.80;;;;;;5097233;28;20186;-83
2024/03/05 10:33:54;;;;;;;7.27;3.30;;;9.80;40.90;;;;;;5100482;28;20191;-83
2024/03/05 10:36:30;;;;;;;4.43;3.40;;;9.50;45.70;;;;;;5110304;28;20167;-83
2024/03/05 10:38:58;;;;;;;5.40;3.67;;;9.50;50.70;;;;;;5103397;28;20198;-84
2024/03/05 10:41:31;;;;;;;7.00;4.40;;;9.50;53.30;;;;;;5093963;28;20176;-85
2024/03/05 10:44:01;;;;;;;6.63;4.13;;;9.40;56.60;;;;;;5094021;28;20280;-84
2024/03/05 10:46:31;;;;;;;5.70;3.60;;;9.50;57.00;;;;;;5094291;28;20180;-84
2024/03/05 10:49:00;;;;;;;6.73;4.30;;;9.40;60.40;;;;;;5091805;28;20223;-84
2024/03/05 10:51:29;;;;;;;6.40;4.17;;;9.50;63.70;;;;;;5094903;28;20168;-83
2024/03/05 10:54:01;;;;;;;6.90;4.23;;;9.50;64.10;;;;;;5097648;28;20170;-83
2024/03/05 10:56:30;;;;;;;6.30;3.97;;;9.80;65.20;;;;;;5093337;28;20175;-84
2024/03/05 11:01:40;;;;;;;7.43;3.30;;;9.70;59.10;;;;;;5094756;28;20650;-83
2024/03/05 11:04:18;;;;;;;6.77;3.03;;;9.60;60.00;;;;;;5092015;28;20192;-91
2024/03/05 11:06:47;;;;;;;4.20;3.23;;;9.60;60.40;;;;;;5093442;28;20520;-85
2024/03/05 11:09:19;;;;;;;8.40;3.43;;;9.80;57.70;;;;;;5093306;28;20199;-90
2024/03/05 11:11:48;;;;;;;6.77;3.03;;;9.90;55.60;;;;;;5094191;28;20175;-85
2024/03/05 11:14:15;;;;;;;6.67;3.07;;;9.70;53.70;;;;;;5094238;28;20167;-86
2024/03/05 11:16:45;;;;;;;4.77;2.97;;;9.50;50.90;;;;;;5093023;28;20182;-84
2024/03/05 11:19:12;;;;;;;6.40;3.80;;;9.70;53.90;;;;;;5093725;28;20180;-85
2024/03/05 11:21:42;;;;;;;6.17;2.97;;;9.90;52.80;;;;;;5094627;28;20239;-83
2024/03/05 11:24:08;;;;;;;4.80;3.47;;;10.00;49.60;;;;;;5093205;28;20175;-85
2024/03/05 11:26:34;;;;;;;6.73;3.60;;;10.10;46.80;;;;;;5092063;28;20265;-87
2024/03/05 11:29:06;;;;;;;5.40;3.90;;;10.40;44.90;;;;;;5093789;28;20203;-84
2024/03/05 11:31:33;;;;;;;6.67;3.30;;;10.50;38.30;;;;;;5094529;28;20210;-84
2024/03/05 11:34:10;;;;;;;6.53;3.57;;;10.80;32.80;;;;;;5092834;28;20183;-84
2024/03/05 11:36:37;;;;;;;4.63;2.90;;;10.90;26.60;;;;;;5092562;28;20160;-83
2024/03/05 11:39:14;;;;;;;4.17;3.23;;;10.80;17.10;;;;;;5092257;28;20192;-85
2024/03/05 11:41:45;;;;;;;5.17;3.40;;;10.80;14.50;;;;;;5092128;28;20255;-85
2024/03/05 11:44:12;;;;;;;6.17;3.10;;;11.00;10.00;;;;;;5093067;28;20171;-85
2024/03/05 11:46:45;;;;;;;5.17;3.13;;;11.20;9.00;;;;;;5090460;28;20246;-87
2024/03/05 11:49:12;;;;;;;4.87;2.77;;;11.50;1.70;;;;;;5092136;28;20218;-84
2024/03/05 11:51:39;;;;;;;5.43;2.93;;;11.50;1.00;;;;;;5091899;28;20164;-90
2024/03/05 11:54:05;;;;;;;5.83;3.37;;;11.50;1.00;;;;;;5091684;28;20219;-83
2024/03/05 11:56:31;;;;;;;5.73;3.70;;;11.60;1.00;;;;;;5092024;28;20176;-85
2024/03/05 11:58:57;;;;;;;5.63;3.40;;;11.60;1.00;;;;;;5092424;28;20178;-84
2024/03/05 12:01:24;;;;;;;6.07;3.40;;;11.70;1.00;;;;;;5092027;28;20172;-82
2024/03/05 12:04:07;;;;;;;6.03;2.80;;;11.80;1.00;;;;;;5092183;28;20640;-85
2024/03/05 12:06:38;;;;;;;4.07;2.80;;;12.00;1.00;;;;;;5091854;28;20164;-86
2024/03/05 12:09:20;;;;;;;4.27;2.43;;;11.80;1.00;;;;;;5091849;28;20202;-88
2024/03/05 12:12:11;;;;;;;3.77;2.47;;;11.60;1.00;;;;;;5091450;28;20170;-83
2024/03/05 12:14:50;;;;;;;5.27;2.60;;;11.40;1.00;;;;;;5091970;28;20298;-85
2024/03/05 12:17:18;;;;;;;3.83;2.40;;;11.30;1.00;;;;;;5091434;28;20199;-84
2024/03/05 12:19:44;;;;;;;7.50;3.40;;;11.30;1.00;;;;;;5091359;28;20167;-89
2024/03/05 12:22:10;;;;;;;8.23;4.27;;;11.30;1.00;;;;;;5091502;28;20175;-90
2024/03/05 12:24:36;;;;;;;8.03;3.30;;;11.30;1.00;;;;;;5091075;28;20274;-84
2024/03/05 12:27:04;;;;;;;6.53;2.80;;;11.10;1.00;;;;;;5092859;28;20225;-83
2024/03/05 12:29:37;;;;;;;8.53;4.87;;;11.20;1.00;;;;;;5101353;28;20679;-85
2024/03/05 12:32:08;;;;;;;8.30;5.00;;;11.40;1.00;;;;;;5095097;28;20518;-85
2024/03/05 12:34:35;;;;;;;6.70;3.03;;;11.30;1.00;;;;;;5091295;28;20176;-83
2024/03/05 12:37:08;;;;;;;8.43;3.00;;;11.40;1.00;;;;;;5091232;28;20668;-84
2024/03/05 12:39:35;;;;;;;6.87;3.10;;;11.50;1.00;;;;;;5091082;28;20203;-86
2024/03/05 12:42:03;;;;;;;6.23;3.43;;;11.50;1.00;;;;;;5090860;28;20549;-85
2024/03/05 12:44:33;;;;;;;5.10;3.00;;;11.50;1.00;;;;;;5090118;28;20250;-85
2024/03/05 12:47:10;;;;;;;6.33;3.40;;;11.50;1.00;;;;;;5090481;28;20182;-84
2024/03/05 12:49:38;;;;;;;12.17;7.10;;;11.40;1.00;;;;;;5091170;28;20338;-84
2024/03/05 12:52:05;;;;;;;9.03;3.17;;;11.40;1.00;;;;;;5094122;28;20175;-83
2024/03/05 12:54:32;;;;;;;6.53;2.73;;;11.30;1.00;;;;;;5095616;28;20255;-82
2024/03/05 12:56:58;;;;;;;6.23;2.87;;;11.30;1.00;;;;;;5095659;28;20653;-84
2024/03/05 12:59:24;;;;;;;6.90;3.30;;;11.10;1.00;;;;;;5095365;28;20251;-85
2024/03/05 13:01:50;;;;;;;6.47;3.30;;;11.10;1.00;;;;;;5094989;28;20199;-83
2024/03/05 13:04:15;;;;;;;7.60;3.40;;;11.00;1.00;;;;;;5095004;28;20530;-90
2024/03/05 13:06:41;;;;;;;5.23;2.80;;;11.10;1.00;;;;;;5095185;28;20178;-83
2024/03/05 13:09:07;;;;;;;7.17;3.17;;;11.00;1.00;;;;;;5095448;28;20210;-83
2024/03/05 13:11:33;;;;;;;5.37;3.30;;;11.10;1.00;;;;;;5096223;28;20235;-82